createdAt,value
2018-06-12T00:00:27.122Z,23.43
2018-06-12T00:01:07.637Z,23.38
2018-06-12T00:01:48.146Z,23.4
2018-06-12T00:02:28.580Z,23.47
2018-06-12T00:03:09.098Z,23.46
2018-06-12T00:03:49.616Z,23.38
2018-06-12T00:04:30.088Z,23.42
2018-06-12T00:05:10.616Z,23.42
2018-06-12T00:05:51.091Z,23.38
2018-06-12T00:06:31.591Z,23.38
2018-06-12T00:07:12.080Z,23.36
2018-06-12T00:07:52.597Z,23.42
2018-06-12T00:08:33.099Z,23.35
2018-06-12T00:09:13.573Z,23.42
2018-06-12T00:09:54.134Z,23.33
2018-06-12T00:10:34.627Z,23.2
2018-06-12T00:11:15.068Z,23.28
2018-06-12T00:11:55.584Z,23.27
2018-06-12T00:12:36.074Z,23.33
2018-06-12T00:13:16.596Z,23.38
2018-06-12T00:13:57.066Z,23.33
2018-06-12T00:14:37.522Z,23.36
2018-06-12T00:15:18.057Z,23.38
2018-06-12T00:15:58.595Z,23.38
2018-06-12T00:16:39.154Z,23.31
2018-06-12T00:17:19.657Z,23.27
2018-06-12T00:18:00.108Z,23.28
2018-06-12T00:18:40.622Z,23.27
2018-06-12T00:19:21.130Z,23.25
2018-06-12T00:20:01.631Z,23.28
2018-06-12T00:20:42.095Z,23.4
2018-06-12T00:21:22.587Z,23.38
2018-06-12T00:22:03.087Z,23.33
2018-06-12T00:22:43.605Z,23.47
2018-06-12T00:23:24.064Z,23.39
2018-06-12T00:24:04.565Z,23.4
2018-06-12T00:24:45.057Z,23.36
2018-06-12T00:25:25.582Z,23.42
2018-06-12T00:26:06.124Z,23.39
2018-06-12T00:26:46.627Z,23.43
2018-06-12T00:27:27.122Z,23.4
2018-06-12T00:28:07.616Z,23.35
2018-06-12T00:28:48.097Z,23.39
2018-06-12T00:29:28.613Z,23.33
2018-06-12T00:30:09.080Z,23.35
2018-06-12T00:30:49.591Z,23.35
2018-06-12T00:31:30.050Z,23.28
2018-06-12T00:32:10.537Z,23.23
2018-06-12T00:32:51.037Z,23.16
2018-06-12T00:33:31.559Z,23.22
2018-06-12T00:34:12.217Z,23.27
2018-06-12T00:34:52.735Z,23.27
2018-06-12T00:35:33.265Z,23.31
2018-06-12T00:36:13.722Z,23.27
2018-06-12T00:36:54.286Z,23.19
2018-06-12T00:37:34.762Z,23.25
2018-06-12T00:38:15.206Z,23.2
2018-06-12T00:38:55.721Z,23.2
2018-06-12T00:39:36.240Z,23.2
2018-06-12T00:40:16.736Z,23.1
2018-06-12T00:40:57.217Z,23.19
2018-06-12T00:41:37.700Z,23.2
2018-06-12T00:42:18.239Z,23.19
2018-06-12T00:42:58.729Z,23.12
2018-06-12T00:43:39.184Z,23.12
2018-06-12T00:44:19.688Z,23.16
2018-06-12T00:45:00.188Z,23.09
2018-06-12T00:45:40.688Z,23.17
2018-06-12T00:46:21.200Z,23.1
2018-06-12T00:47:01.713Z,23.19
2018-06-12T00:47:42.184Z,23.16
2018-06-12T00:48:22.698Z,23.16
2018-06-12T00:49:03.196Z,23.19
2018-06-12T00:49:43.699Z,23.23
2018-06-12T00:50:24.177Z,23.17
2018-06-12T00:51:04.721Z,23.13
2018-06-12T00:51:45.257Z,23.16
2018-06-12T00:52:25.792Z,23.2
2018-06-12T00:53:06.262Z,23.23
2018-06-12T00:53:46.715Z,23.16
2018-06-12T00:54:27.257Z,23.33
2018-06-12T00:55:07.705Z,23.23
2018-06-12T00:55:48.185Z,23.27
2018-06-12T00:56:28.674Z,23.33
2018-06-12T00:57:09.189Z,23.31
2018-06-12T00:57:49.654Z,23.25
2018-06-12T00:58:30.154Z,23.25
2018-06-12T00:59:10.650Z,23.31
2018-06-12T00:59:51.136Z,23.22
2018-06-12T01:00:31.695Z,23.31
2018-06-12T01:01:12.149Z,23.23
2018-06-12T01:01:52.651Z,23.32
2018-06-12T01:02:33.152Z,23.23
2018-06-12T01:03:13.677Z,23.15
2018-06-12T01:03:54.151Z,23.23
2018-06-12T01:04:34.713Z,23.09
2018-06-12T01:05:15.222Z,23.1
2018-06-12T01:05:55.735Z,23.09
2018-06-12T01:06:36.248Z,23.17
2018-06-12T01:07:16.758Z,23.22
2018-06-12T01:07:57.446Z,23.22
2018-06-12T01:08:37.897Z,23.16
2018-06-12T01:09:18.342Z,23.2
2018-06-12T01:09:58.858Z,23.33
2018-06-12T01:10:39.330Z,23.32
2018-06-12T01:11:19.925Z,23.23
2018-06-12T01:12:00.456Z,23.33
2018-06-12T01:12:40.936Z,23.28
2018-06-12T01:13:21.434Z,23.33
2018-06-12T01:14:01.903Z,23.27
2018-06-12T01:14:42.407Z,23.32
2018-06-12T01:15:22.905Z,23.31
2018-06-12T01:16:03.431Z,23.35
2018-06-12T01:16:43.878Z,23.36
2018-06-12T01:17:24.371Z,23.25
2018-06-12T01:18:04.894Z,23.27
2018-06-12T01:18:45.345Z,23.2
2018-06-12T01:19:25.897Z,23.25
2018-06-12T01:20:06.347Z,23.27
2018-06-12T01:20:46.901Z,23.27
2018-06-12T01:21:27.424Z,23.35
2018-06-12T01:22:07.857Z,23.31
2018-06-12T01:22:48.353Z,23.25
2018-06-12T01:23:28.887Z,23.23
2018-06-12T01:24:09.374Z,23.22
2018-06-12T01:24:49.872Z,23.2
2018-06-12T01:25:30.355Z,23.22
2018-06-12T01:26:10.886Z,23.27
2018-06-12T01:26:51.375Z,23.25
2018-06-12T01:27:31.851Z,23.27
2018-06-12T01:28:12.341Z,23.25
2018-06-12T01:28:52.823Z,23.39
2018-06-12T01:29:33.378Z,23.31
2018-06-12T01:30:13.873Z,23.32
2018-06-12T01:30:54.329Z,23.32
2018-06-12T01:31:34.837Z,23.4
2018-06-12T01:32:15.321Z,23.35
2018-06-12T01:32:55.838Z,23.38
2018-06-12T01:33:36.327Z,23.36
2018-06-12T01:34:16.863Z,23.33
2018-06-12T01:34:57.391Z,23.35
2018-06-12T01:35:37.836Z,23.42
2018-06-12T01:36:18.493Z,23.35
2018-06-12T01:36:58.840Z,23.33
2018-06-12T01:37:39.379Z,23.47
2018-06-12T01:38:19.844Z,23.38
2018-06-12T01:39:00.447Z,23.36
2018-06-12T01:39:40.908Z,23.33
2018-06-12T01:40:21.405Z,23.4
2018-06-12T01:41:01.917Z,23.46
2018-06-12T01:41:42.405Z,23.36
2018-06-12T01:42:22.989Z,23.43
2018-06-12T01:43:03.504Z,23.38
2018-06-12T01:43:43.965Z,23.43
2018-06-12T01:44:24.461Z,23.32
2018-06-12T01:45:04.918Z,23.33
2018-06-12T01:45:45.394Z,23.43
2018-06-12T01:46:25.924Z,23.43
2018-06-12T01:47:06.412Z,23.46
2018-06-12T01:47:46.872Z,23.42
2018-06-12T01:48:27.385Z,23.38
2018-06-12T01:49:07.868Z,23.35
2018-06-12T01:49:48.414Z,23.39
2018-06-12T01:50:28.915Z,23.28
2018-06-12T01:51:09.407Z,23.31
2018-06-12T01:51:49.922Z,23.35
2018-06-12T01:52:30.404Z,23.36
2018-06-12T01:53:10.898Z,23.39
2018-06-12T01:53:51.440Z,23.42
2018-06-12T01:54:31.878Z,23.4
2018-06-12T01:55:12.362Z,23.35
2018-06-12T01:55:52.887Z,23.42
2018-06-12T01:56:33.423Z,23.48
2018-06-12T01:57:13.897Z,23.46
2018-06-12T01:57:54.422Z,23.43
2018-06-12T01:58:34.868Z,23.43
2018-06-12T01:59:15.406Z,23.35
2018-06-12T01:59:55.896Z,23.39
2018-06-12T02:00:36.432Z,23.38
2018-06-12T02:01:16.882Z,23.46
2018-06-12T02:01:57.362Z,23.38
2018-06-12T02:02:37.867Z,23.43
2018-06-12T02:03:18.358Z,23.36
2018-06-12T02:03:58.856Z,23.4
2018-06-12T02:04:39.343Z,23.4
2018-06-12T02:05:19.801Z,23.4
2018-06-12T02:06:00.302Z,23.33
2018-06-12T02:06:40.821Z,23.36
2018-06-12T02:07:21.338Z,23.43
2018-06-12T02:08:01.837Z,23.46
2018-06-12T02:08:42.329Z,23.35
2018-06-12T02:09:22.827Z,23.33
2018-06-12T02:10:03.329Z,23.33
2018-06-12T02:10:43.817Z,23.46
2018-06-12T02:11:24.340Z,23.39
2018-06-12T02:12:04.841Z,23.35
2018-06-12T02:12:45.352Z,23.4
2018-06-12T02:13:25.869Z,23.33
2018-06-12T02:14:06.388Z,23.39
2018-06-12T02:14:46.919Z,23.36
2018-06-12T02:15:27.401Z,23.38
2018-06-12T02:16:07.946Z,23.35
2018-06-12T02:16:48.405Z,23.33
2018-06-12T02:17:28.894Z,23.38
2018-06-12T02:18:09.422Z,23.43
2018-06-12T02:18:49.867Z,23.39
2018-06-12T02:19:30.335Z,23.47
2018-06-12T02:20:10.843Z,23.38
2018-06-12T02:20:51.353Z,23.35
2018-06-12T02:21:31.864Z,23.39
2018-06-12T02:22:12.381Z,23.38
2018-06-12T02:22:52.883Z,23.47
2018-06-12T02:23:33.444Z,23.43
2018-06-12T02:24:13.915Z,23.38
2018-06-12T02:24:54.381Z,23.39
2018-06-12T02:25:34.887Z,23.38
2018-06-12T02:26:15.390Z,23.46
2018-06-12T02:26:55.902Z,23.35
2018-06-12T02:27:36.421Z,23.4
2018-06-12T02:28:16.924Z,23.4
2018-06-12T02:28:57.433Z,23.46
2018-06-12T02:29:37.953Z,23.53
2018-06-12T02:30:18.512Z,23.46
2018-06-12T02:30:59.030Z,23.43
2018-06-12T02:31:39.535Z,23.46
2018-06-12T02:32:20.066Z,23.4
2018-06-12T02:33:00.540Z,23.46
2018-06-12T02:33:41.009Z,23.36
2018-06-12T02:34:21.525Z,23.39
2018-06-12T02:35:02.014Z,23.48
2018-06-12T02:35:42.512Z,23.48
2018-06-12T02:36:22.978Z,23.5
2018-06-12T02:37:03.466Z,23.5
2018-06-12T02:37:43.984Z,23.4
2018-06-12T02:38:24.507Z,23.39
2018-06-12T02:39:05.002Z,23.48
2018-06-12T02:39:45.522Z,23.43
2018-06-12T02:40:26.045Z,23.42
2018-06-12T02:41:06.524Z,23.43
2018-06-12T02:41:47.016Z,23.61
2018-06-12T02:42:27.530Z,23.51
2018-06-12T02:43:08.060Z,23.47
2018-06-12T02:43:48.546Z,23.38
2018-06-12T02:44:29.114Z,23.43
2018-06-12T02:45:09.566Z,23.48
2018-06-12T02:45:50.057Z,23.4
2018-06-12T02:46:30.556Z,23.46
2018-06-12T02:47:11.014Z,23.39
2018-06-12T02:47:51.526Z,23.4
2018-06-12T02:48:32.070Z,23.33
2018-06-12T02:49:12.565Z,23.39
2018-06-12T02:49:53.063Z,23.4
2018-06-12T02:50:33.583Z,23.43
2018-06-12T02:51:14.058Z,23.43
2018-06-12T02:51:54.519Z,23.4
2018-06-12T02:52:35.050Z,23.48
2018-06-12T02:53:15.512Z,23.35
2018-06-12T02:53:56.035Z,23.46
2018-06-12T02:54:36.605Z,23.4
2018-06-12T02:55:17.097Z,23.39
2018-06-12T02:55:57.622Z,23.35
2018-06-12T02:56:38.151Z,23.47
2018-06-12T02:57:18.647Z,23.33
2018-06-12T02:57:59.175Z,23.36
2018-06-12T02:58:39.657Z,23.42
2018-06-12T02:59:20.174Z,23.35
2018-06-12T03:00:00.697Z,23.39
2018-06-12T03:00:41.196Z,23.39
2018-06-12T03:01:21.715Z,23.43
2018-06-12T03:02:02.241Z,23.36
2018-06-12T03:02:42.738Z,23.36
2018-06-12T03:03:23.198Z,23.36
2018-06-12T03:04:03.729Z,23.38
2018-06-12T03:04:44.248Z,23.39
2018-06-12T03:05:24.768Z,23.31
2018-06-12T03:06:05.281Z,23.43
2018-06-12T03:06:45.756Z,23.36
2018-06-12T03:07:26.260Z,23.36
2018-06-12T03:08:06.794Z,23.43
2018-06-12T03:08:47.257Z,23.4
2018-06-12T03:09:27.731Z,23.46
2018-06-12T03:10:08.255Z,23.36
2018-06-12T03:10:48.785Z,23.36
2018-06-12T03:11:29.287Z,23.46
2018-06-12T03:12:09.771Z,23.5
2018-06-12T03:12:50.257Z,23.38
2018-06-12T03:13:30.720Z,23.39
2018-06-12T03:14:11.250Z,23.38
2018-06-12T03:14:51.752Z,23.35
2018-06-12T03:15:32.250Z,23.36
2018-06-12T03:16:12.704Z,23.23
2018-06-12T03:16:53.190Z,23.23
2018-06-12T03:17:33.702Z,23.27
2018-06-12T03:18:14.221Z,23.25
2018-06-12T03:18:54.788Z,23.36
2018-06-12T03:19:35.268Z,23.22
2018-06-12T03:20:15.771Z,23.22
2018-06-12T03:20:56.277Z,23.31
2018-06-12T03:21:36.771Z,23.33
2018-06-12T03:22:17.250Z,23.28
2018-06-12T03:22:57.783Z,23.35
2018-06-12T03:23:38.302Z,23.32
2018-06-12T03:24:18.784Z,23.35
2018-06-12T03:24:59.274Z,23.36
2018-06-12T03:25:39.794Z,23.46
2018-06-12T03:26:20.359Z,23.27
2018-06-12T03:27:00.865Z,23.27
2018-06-12T03:27:41.359Z,23.28
2018-06-12T03:28:21.879Z,23.28
2018-06-12T03:29:02.350Z,23.4
2018-06-12T03:29:42.854Z,23.42
2018-06-12T03:30:23.374Z,23.35
2018-06-12T03:31:03.886Z,23.46
2018-06-12T03:31:44.336Z,23.39
2018-06-12T03:32:24.824Z,23.38
2018-06-12T03:33:05.292Z,23.32
2018-06-12T03:33:45.784Z,23.39
2018-06-12T03:34:26.257Z,23.39
2018-06-12T03:35:06.721Z,23.35
2018-06-12T03:35:47.198Z,23.36
2018-06-12T03:36:27.691Z,23.39
2018-06-12T03:37:08.227Z,23.27
2018-06-12T03:37:48.703Z,23.28
2018-06-12T03:38:29.207Z,23.16
2018-06-12T03:39:09.703Z,23.28
2018-06-12T03:39:50.180Z,23.31
2018-06-12T03:40:30.681Z,23.35
2018-06-12T03:41:11.177Z,23.42
2018-06-12T03:41:51.681Z,23.39
2018-06-12T03:42:32.138Z,23.38
2018-06-12T03:43:12.618Z,23.46
2018-06-12T03:43:53.121Z,23.47
2018-06-12T03:44:33.665Z,23.33
2018-06-12T03:45:14.184Z,23.47
2018-06-12T03:45:54.682Z,23.35
2018-06-12T03:46:35.170Z,23.32
2018-06-12T03:47:15.615Z,23.33
2018-06-12T03:47:56.151Z,23.4
2018-06-12T03:48:36.668Z,23.33
2018-06-12T03:49:17.146Z,23.33
2018-06-12T03:49:57.666Z,23.43
2018-06-12T03:50:38.127Z,23.35
2018-06-12T03:51:18.624Z,23.36
2018-06-12T03:51:59.276Z,23.39
2018-06-12T03:52:39.761Z,23.36
2018-06-12T03:53:20.277Z,23.28
2018-06-12T03:54:00.782Z,23.25
2018-06-12T03:54:41.299Z,23.23
2018-06-12T03:55:21.757Z,23.32
2018-06-12T03:56:02.285Z,23.35
2018-06-12T03:56:42.765Z,23.35
2018-06-12T03:57:23.282Z,23.33
2018-06-12T03:58:03.722Z,23.36
2018-06-12T03:58:44.218Z,23.47
2018-06-12T03:59:24.783Z,23.32
2018-06-12T04:00:05.308Z,23.27
2018-06-12T04:00:45.769Z,23.28
2018-06-12T04:01:26.264Z,23.35
2018-06-12T04:02:06.739Z,23.46
2018-06-12T04:02:47.221Z,23.42
2018-06-12T04:03:27.731Z,23.31
2018-06-12T04:04:08.252Z,23.36
2018-06-12T04:04:48.758Z,23.32
2018-06-12T04:05:29.238Z,23.35
2018-06-12T04:06:09.740Z,23.43
2018-06-12T04:06:50.228Z,23.31
2018-06-12T04:07:30.710Z,23.4
2018-06-12T04:08:11.230Z,23.27
2018-06-12T04:08:51.667Z,23.27
2018-06-12T04:09:32.185Z,23.32
2018-06-12T04:10:12.700Z,23.28
2018-06-12T04:10:53.161Z,23.38
2018-06-12T04:11:33.675Z,23.35
2018-06-12T04:12:14.208Z,23.38
2018-06-12T04:12:54.648Z,23.46
2018-06-12T04:13:35.162Z,23.39
2018-06-12T04:14:15.674Z,23.33
2018-06-12T04:14:56.188Z,23.33
2018-06-12T04:15:36.627Z,23.28
2018-06-12T04:16:17.140Z,23.32
2018-06-12T04:16:57.613Z,23.36
2018-06-12T04:17:38.095Z,23.4
2018-06-12T04:18:18.608Z,23.32
2018-06-12T04:18:59.083Z,23.32
2018-06-12T04:19:39.561Z,23.36
2018-06-12T04:20:20.041Z,23.43
2018-06-12T04:21:00.568Z,23.39
2018-06-12T04:21:41.067Z,23.36
2018-06-12T04:22:21.533Z,23.39
2018-06-12T04:23:02.043Z,23.46
2018-06-12T04:23:42.509Z,23.47
2018-06-12T04:24:23.025Z,23.42
2018-06-12T04:25:03.527Z,23.58
2018-06-12T04:25:44.762Z,23.48
2018-06-12T04:26:25.258Z,23.35
2018-06-12T04:27:05.748Z,23.36
2018-06-12T04:27:46.224Z,23.4
2018-06-12T04:28:26.688Z,23.43
2018-06-12T04:29:07.214Z,23.4
2018-06-12T04:29:47.746Z,23.55
2018-06-12T04:30:28.214Z,23.55
2018-06-12T04:31:08.731Z,23.54
2018-06-12T04:31:49.211Z,23.58
2018-06-12T04:32:29.703Z,23.57
2018-06-12T04:33:10.212Z,23.53
2018-06-12T04:33:50.690Z,23.63
2018-06-12T04:34:31.177Z,23.6
2018-06-12T04:35:11.673Z,23.46
2018-06-12T04:35:52.174Z,23.63
2018-06-12T04:36:32.670Z,23.54
2018-06-12T04:37:13.143Z,23.65
2018-06-12T04:37:53.618Z,23.55
2018-06-12T04:38:34.115Z,23.46
2018-06-12T04:39:14.629Z,23.43
2018-06-12T04:39:55.118Z,23.36
2018-06-12T04:40:35.634Z,23.43
2018-06-12T04:41:16.137Z,23.48
2018-06-12T04:41:56.592Z,23.35
2018-06-12T04:42:37.121Z,23.36
2018-06-12T04:43:17.609Z,23.35
2018-06-12T04:43:58.069Z,23.33
2018-06-12T04:44:38.605Z,23.46
2018-06-12T04:45:19.139Z,23.4
2018-06-12T04:45:59.682Z,23.36
2018-06-12T04:46:40.147Z,23.35
2018-06-12T04:47:20.685Z,23.36
2018-06-12T04:48:01.170Z,23.43
2018-06-12T04:48:41.710Z,23.38
2018-06-12T04:49:22.190Z,23.47
2018-06-12T04:50:02.713Z,23.42
2018-06-12T04:50:43.252Z,23.36
2018-06-12T04:51:23.752Z,23.35
2018-06-12T04:52:04.216Z,23.4
2018-06-12T04:52:44.723Z,23.43
2018-06-12T04:53:25.279Z,23.31
2018-06-12T04:54:05.771Z,23.36
2018-06-12T04:54:46.273Z,23.35
2018-06-12T04:55:26.828Z,23.31
2018-06-12T04:56:07.321Z,23.42
2018-06-12T04:56:47.791Z,23.36
2018-06-12T04:57:28.258Z,23.39
2018-06-12T04:58:08.733Z,23.36
2018-06-12T04:58:49.223Z,23.38
2018-06-12T04:59:29.815Z,23.38
2018-06-12T05:00:10.289Z,23.46
2018-06-12T05:00:50.788Z,23.38
2018-06-12T05:01:31.566Z,23.33
2018-06-12T05:02:12.123Z,23.4
2018-06-12T05:02:52.633Z,23.46
2018-06-12T05:03:33.120Z,23.35
2018-06-12T05:04:13.655Z,23.39
2018-06-12T05:04:54.196Z,23.36
2018-06-12T05:05:34.687Z,23.39
2018-06-12T05:06:15.423Z,23.31
2018-06-12T05:06:55.947Z,23.36
2018-06-12T05:07:36.481Z,23.4
2018-06-12T05:08:17.002Z,23.38
2018-06-12T05:08:57.515Z,23.23
2018-06-12T05:09:38.147Z,23.31
2018-06-12T05:10:18.540Z,23.27
2018-06-12T05:10:59.061Z,23.16
2018-06-12T05:11:39.589Z,23.15
2018-06-12T05:12:20.074Z,23.15
2018-06-12T05:13:00.595Z,23.15
2018-06-12T05:13:41.128Z,23.19
2018-06-12T05:14:21.590Z,23.15
2018-06-12T05:15:02.124Z,23.22
2018-06-12T05:15:42.620Z,23.1
2018-06-12T05:16:23.143Z,23.13
2018-06-12T05:17:03.628Z,23.15
2018-06-12T05:17:44.144Z,23.1
2018-06-12T05:18:24.615Z,23.22
2018-06-12T05:19:05.189Z,23.17
2018-06-12T05:19:45.781Z,23.19
2018-06-12T05:20:26.355Z,23.19
2018-06-12T05:21:06.852Z,23.17
2018-06-12T05:21:47.334Z,23.31
2018-06-12T05:22:27.843Z,23.25
2018-06-12T05:23:08.314Z,23.28
2018-06-12T05:23:48.834Z,23.39
2018-06-12T05:24:29.332Z,23.39
2018-06-12T05:25:09.973Z,23.36
2018-06-12T05:25:50.438Z,23.38
2018-06-12T05:26:30.962Z,23.46
2018-06-12T05:27:11.687Z,23.43
2018-06-12T05:27:52.225Z,23.39
2018-06-12T05:28:32.706Z,23.4
2018-06-12T05:29:13.219Z,23.33
2018-06-12T05:29:53.715Z,23.43
2018-06-12T05:30:34.240Z,23.38
2018-06-12T05:31:14.770Z,23.39
2018-06-12T05:31:55.237Z,23.48
2018-06-12T05:32:35.756Z,23.46
2018-06-12T05:33:16.227Z,23.47
2018-06-12T05:33:56.694Z,23.55
2018-06-12T05:34:37.253Z,23.53
2018-06-12T05:35:17.716Z,23.53
2018-06-12T05:35:58.201Z,23.51
2018-06-12T05:36:38.744Z,23.51
2018-06-12T05:37:19.222Z,23.42
2018-06-12T05:37:59.684Z,23.48
2018-06-12T05:38:40.217Z,23.38
2018-06-12T05:39:20.698Z,23.36
2018-06-12T05:40:01.267Z,23.42
2018-06-12T05:40:41.706Z,23.4
2018-06-12T05:41:22.175Z,23.42
2018-06-12T05:42:02.718Z,23.48
2018-06-12T05:42:43.174Z,23.48
2018-06-12T05:43:23.738Z,23.46
2018-06-12T05:44:08.353Z,23.38
2018-06-12T05:44:48.859Z,23.48
2018-06-12T05:45:29.379Z,23.48
2018-06-12T05:46:09.839Z,23.4
2018-06-12T05:46:50.369Z,23.42
2018-06-12T05:47:30.884Z,23.47
2018-06-12T05:48:11.408Z,23.65
2018-06-12T05:48:51.867Z,23.73
2018-06-12T05:49:32.562Z,23.72
2018-06-12T05:50:13.051Z,23.72
2018-06-12T05:50:53.546Z,23.73
2018-06-12T05:51:34.040Z,23.61
2018-06-12T05:52:14.526Z,23.6
2018-06-12T05:52:55.062Z,23.58
2018-06-12T05:53:35.519Z,23.46
2018-06-12T05:54:16.057Z,23.5
2018-06-12T05:54:56.580Z,23.43
2018-06-12T05:55:37.111Z,23.43
2018-06-12T05:56:17.676Z,23.5
2018-06-12T05:56:58.132Z,23.32
2018-06-12T05:57:38.809Z,23.47
2018-06-12T05:58:19.358Z,23.36
2018-06-12T05:58:59.796Z,23.42
2018-06-12T05:59:40.478Z,23.46
2018-06-12T06:00:21.037Z,23.46
2018-06-12T06:01:01.484Z,23.42
2018-06-12T06:01:42.021Z,23.46
2018-06-12T06:02:22.527Z,23.5
2018-06-12T06:03:02.993Z,23.35
2018-06-12T06:03:43.575Z,23.39
2018-06-12T06:04:24.216Z,23.47
2018-06-12T06:05:04.610Z,23.48
2018-06-12T06:05:45.084Z,23.4
2018-06-12T06:06:25.604Z,23.42
2018-06-12T06:07:06.128Z,23.57
2018-06-12T06:07:46.661Z,23.42
2018-06-12T06:08:27.113Z,23.55
2018-06-12T06:09:07.649Z,23.6
2018-06-12T06:09:48.125Z,23.6
2018-06-12T06:10:28.631Z,23.42
2018-06-12T06:11:09.311Z,23.61
2018-06-12T06:11:49.837Z,23.7
2018-06-12T06:12:30.365Z,23.75
2018-06-12T06:13:10.888Z,23.8
2018-06-12T06:13:51.455Z,23.73
2018-06-12T06:14:31.990Z,23.73
2018-06-12T06:15:12.484Z,23.76
2018-06-12T06:16:50.367Z,23.83
2018-06-12T06:17:30.867Z,23.88
2018-06-12T06:18:11.371Z,24.02
2018-06-12T06:18:51.927Z,23.9
2018-06-12T06:19:32.514Z,23.78
2018-06-12T06:20:13.034Z,23.69
2018-06-12T06:20:53.596Z,23.76
2018-06-12T06:21:34.105Z,23.7
2018-06-12T06:22:14.628Z,23.72
2018-06-12T06:22:55.131Z,23.83
2018-06-12T06:23:35.634Z,23.76
2018-06-12T06:24:16.152Z,23.85
2018-06-12T06:24:56.676Z,23.76
2018-06-12T06:25:37.172Z,23.83
2018-06-12T06:26:17.744Z,23.79
2018-06-12T06:26:58.836Z,23.87
2018-06-12T06:27:38.996Z,23.9
2018-06-12T06:29:37.918Z,23.76
2018-06-12T06:30:18.418Z,23.79
2018-06-12T06:30:58.951Z,23.85
2018-06-12T06:31:39.468Z,23.83
2018-06-12T06:32:19.999Z,23.87
2018-06-12T06:33:00.513Z,23.83
2018-06-12T06:33:41.045Z,23.84
2018-06-12T06:34:21.599Z,23.76
2018-06-12T06:35:02.133Z,23.75
2018-06-12T06:35:42.674Z,23.7
2018-06-12T06:36:23.363Z,23.8
2018-06-12T06:37:03.778Z,23.84
2018-06-12T06:37:44.278Z,23.97
2018-06-12T06:38:24.834Z,24
2018-06-12T06:39:05.364Z,23.98
2018-06-12T06:39:45.870Z,23.9
2018-06-12T06:40:26.421Z,23.79
2018-06-12T06:41:06.946Z,23.87
2018-06-12T06:41:47.501Z,23.8
2018-06-12T06:42:28.017Z,23.79
2018-06-12T06:43:08.603Z,23.76
2018-06-12T06:43:49.067Z,23.78
2018-06-12T06:44:29.646Z,23.72
2018-06-12T06:45:10.159Z,23.68
2018-06-12T06:45:50.672Z,23.68
2018-06-12T06:46:31.239Z,23.48
2018-06-12T06:47:11.752Z,23.73
2018-06-12T06:47:52.283Z,23.72
2018-06-12T06:48:32.810Z,23.63
2018-06-12T06:49:13.321Z,23.53
2018-06-12T06:49:53.867Z,23.54
2018-06-12T06:50:34.379Z,23.55
2018-06-12T06:51:14.901Z,23.54
2018-06-12T06:51:55.454Z,23.57
2018-06-12T06:52:35.964Z,23.7
2018-06-12T06:53:16.473Z,23.68
2018-06-12T06:53:57.009Z,23.73
2018-06-12T06:54:37.516Z,23.72
2018-06-12T06:55:18.034Z,23.54
2018-06-12T06:55:58.561Z,23.54
2018-06-12T06:56:39.105Z,23.4
2018-06-12T06:57:19.608Z,23.4
2018-06-12T06:58:00.132Z,23.42
2018-06-12T06:58:40.693Z,23.5
2018-06-12T06:59:21.213Z,23.53
2018-06-12T07:00:01.715Z,23.55
2018-06-12T07:00:42.239Z,23.53
2018-06-12T07:01:22.809Z,23.47
2018-06-12T07:02:03.321Z,23.43
2018-06-12T07:02:43.852Z,23.35
2018-06-12T07:04:37.080Z,23.36
2018-06-12T07:05:17.582Z,23.5
2018-06-12T07:05:58.167Z,23.48
2018-06-12T07:06:38.735Z,23.66
2018-06-12T07:07:19.268Z,23.54
2018-06-12T07:07:59.795Z,23.57
2018-06-12T07:08:40.316Z,23.63
2018-06-12T07:09:20.841Z,23.53
2018-06-12T07:10:01.346Z,23.63
2018-06-12T07:10:41.912Z,23.58
2018-06-12T07:11:22.427Z,23.63
2018-06-12T07:12:02.967Z,23.65
2018-06-12T07:12:43.519Z,23.6
2018-06-12T07:13:23.990Z,23.6
2018-06-12T07:14:04.560Z,23.53
2018-06-12T07:14:45.084Z,23.51
2018-06-12T07:15:25.612Z,23.54
2018-06-12T07:16:06.267Z,23.51
2018-06-12T07:16:46.708Z,23.65
2018-06-12T07:17:27.193Z,23.66
2018-06-12T07:18:07.766Z,23.61
2018-06-12T07:18:48.271Z,23.63
2018-06-12T07:19:28.791Z,23.63
2018-06-12T07:20:09.326Z,23.6
2018-06-12T07:20:49.833Z,23.6
2018-06-12T07:21:30.328Z,23.48
2018-06-12T07:22:10.833Z,23.6
2018-06-12T07:22:51.363Z,23.54
2018-06-12T07:23:31.893Z,23.6
2018-06-12T07:24:12.420Z,23.58
2018-06-12T07:24:52.928Z,23.58
2018-06-12T07:25:33.445Z,23.7
2018-06-12T07:26:14.069Z,23.73
2018-06-12T07:26:54.571Z,23.65
2018-06-12T07:27:35.205Z,23.73
2018-06-12T07:28:15.733Z,23.7
2018-06-12T07:28:56.247Z,23.6
2018-06-12T07:29:36.776Z,23.69
2018-06-12T07:30:17.311Z,23.53
2018-06-12T07:30:57.854Z,23.58
2018-06-12T07:31:38.404Z,23.57
2018-06-12T07:32:18.962Z,23.55
2018-06-12T07:32:59.454Z,23.55
2018-06-12T07:33:39.994Z,23.54
2018-06-12T07:34:20.540Z,23.51
2018-06-12T07:35:01.073Z,23.47
2018-06-12T07:35:41.599Z,23.46
2018-06-12T07:36:22.131Z,23.6
2018-06-12T07:37:02.626Z,23.7
2018-06-12T07:37:43.259Z,23.72
2018-06-12T07:38:23.672Z,23.76
2018-06-12T07:39:04.177Z,23.73
2018-06-12T07:39:44.713Z,23.63
2018-06-12T07:40:25.203Z,23.61
2018-06-12T07:41:05.737Z,23.7
2018-06-12T07:41:46.317Z,23.8
2018-06-12T07:42:26.799Z,23.8
2018-06-12T07:43:07.281Z,24
2018-06-12T07:43:47.785Z,24.16
2018-06-12T07:44:28.280Z,24.12
2018-06-12T07:45:08.786Z,24.25
2018-06-12T07:45:49.323Z,24.3
2018-06-12T07:46:29.837Z,24.22
2018-06-12T07:47:10.360Z,24.27
2018-06-12T07:47:50.884Z,24.39
2018-06-12T07:48:31.417Z,24.34
2018-06-12T07:49:11.917Z,24.3
2018-06-12T07:49:52.434Z,24.32
2018-06-12T07:50:32.982Z,24.27
2018-06-12T07:51:13.482Z,24.21
2018-06-12T07:51:53.992Z,24.18
2018-06-12T07:52:34.521Z,24.1
2018-06-12T07:53:15.050Z,24.02
2018-06-12T07:53:55.579Z,23.98
2018-06-12T07:54:36.104Z,23.88
2018-06-12T07:55:16.641Z,23.95
2018-06-12T07:55:57.147Z,24
2018-06-12T07:56:37.656Z,23.98
2018-06-12T07:57:18.192Z,23.98
2018-06-12T07:57:58.745Z,24.03
2018-06-12T07:58:39.231Z,23.94
2018-06-12T07:59:19.745Z,23.95
2018-06-12T08:00:00.320Z,24.03
2018-06-12T08:00:40.841Z,24.1
2018-06-12T08:01:21.392Z,24.16
2018-06-12T08:02:01.939Z,24.1
2018-06-12T08:02:42.441Z,24
2018-06-12T08:03:22.965Z,23.75
2018-06-12T08:04:03.493Z,23.75
2018-06-12T08:04:44.026Z,23.72
2018-06-12T08:05:24.548Z,23.75
2018-06-12T08:06:05.076Z,23.61
2018-06-12T08:06:45.600Z,23.58
2018-06-12T08:07:26.131Z,23.75
2018-06-12T08:08:06.636Z,23.7
2018-06-12T08:08:47.190Z,23.73
2018-06-12T08:09:27.768Z,23.83
2018-06-12T08:10:08.293Z,23.84
2018-06-12T08:10:48.825Z,23.9
2018-06-12T08:11:29.473Z,23.88
2018-06-12T08:12:09.982Z,23.78
2018-06-12T08:12:50.570Z,23.69
2018-06-12T08:13:31.039Z,23.48
2018-06-12T08:14:11.561Z,23.5
2018-06-12T08:14:52.074Z,23.5
2018-06-12T08:15:32.633Z,23.36
2018-06-12T08:16:13.140Z,23.39
2018-06-12T08:16:53.736Z,23.42
2018-06-12T08:17:34.261Z,23.43
2018-06-12T08:18:14.834Z,23.57
2018-06-12T08:18:55.338Z,23.4
2018-06-12T08:20:43.369Z,23.5
2018-06-12T08:21:23.880Z,23.5
2018-06-12T08:22:04.389Z,23.58
2018-06-12T08:22:45.295Z,23.6
2018-06-12T08:23:25.823Z,23.57
2018-06-12T08:24:06.379Z,23.53
2018-06-12T08:24:46.886Z,23.48
2018-06-12T08:25:27.399Z,23.39
2018-06-12T08:26:07.932Z,23.39
2018-06-12T08:26:48.436Z,23.35
2018-06-12T08:27:28.949Z,23.35
2018-06-12T08:28:09.487Z,23.4
2018-06-12T08:28:50.032Z,23.36
2018-06-12T08:29:30.499Z,23.4
2018-06-12T08:30:11.126Z,23.46
2018-06-12T08:30:51.542Z,23.42
2018-06-12T08:31:32.041Z,23.42
2018-06-12T08:32:12.574Z,23.38
2018-06-12T08:32:53.128Z,23.33
2018-06-12T08:34:51.608Z,23.38
2018-06-12T08:35:32.206Z,23.36
2018-06-12T08:36:12.702Z,23.47
2018-06-12T08:36:53.233Z,23.46
2018-06-12T08:37:33.814Z,23.61
2018-06-12T08:38:14.350Z,23.61
2018-06-12T08:38:54.864Z,23.65
2018-06-12T08:39:35.384Z,23.68
2018-06-12T08:40:15.891Z,23.73
2018-06-12T08:40:56.480Z,23.79
2018-06-12T08:41:36.965Z,23.78
2018-06-12T08:42:17.472Z,23.8
2018-06-12T08:42:57.976Z,23.9
2018-06-12T08:43:38.497Z,23.85
2018-06-12T08:44:19.039Z,23.91
2018-06-12T08:44:59.575Z,23.84
2018-06-12T08:45:40.096Z,23.85
2018-06-12T08:46:20.631Z,23.8
2018-06-12T08:47:01.107Z,23.68
2018-06-12T08:47:41.637Z,23.73
2018-06-12T08:48:22.136Z,23.63
2018-06-12T08:49:02.681Z,23.69
2018-06-12T08:49:43.199Z,23.73
2018-06-12T08:50:23.695Z,23.91